sensor_id;sensor_type;location;lat;lon;timestamp;pressure;altitude;pressure_sealevel;temperature;humidity
10008;BME280;5043;41.766;26.204;2023-04-01T00:00:16;100175.97;;;10.90;88.62
10008;BME280;5043;41.766;26.204;2023-04-01T00:02:42;100246.34;;;11.32;88.47
10008;BME280;5043;41.766;26.204;2023-04-01T00:05:08;100251.59;;;11.43;88.47
10008;BME280;5043;41.766;26.204;2023-04-01T00:07:39;100241.06;;;11.32;88.33
10008;BME280;5043;41.766;26.204;2023-04-01T00:10:06;100231.97;;;11.25;88.11
10008;BME280;5043;41.766;26.204;2023-04-01T00:12:32;100229.06;;;11.28;88.40
10008;BME280;5043;41.766;26.204;2023-04-01T00:14:57;100264.47;;;11.26;88.93
10008;BME280;5043;41.766;26.204;2023-04-01T00:17:23;100222.03;;;11.18;88.74
10008;BME280;5043;41.766;26.204;2023-04-01T00:19:48;100229.91;;;11.29;87.53
10008;BME280;5043;41.766;26.204;2023-04-01T00:22:14;100251.78;;;11.20;88.31
10008;BME280;5043;41.766;26.204;2023-04-01T00:24:39;100228.19;;;11.07;88.48
10008;BME280;5043;41.766;26.204;2023-04-01T00:27:05;100173.19;;;10.91;88.14
10008;BME280;5043;41.766;26.204;2023-04-01T00:29:31;100222.50;;;11.23;88.00
10008;BME280;5043;41.766;26.204;2023-04-01T00:31:57;100226.34;;;11.19;87.98
10008;BME280;5043;41.766;26.204;2023-04-01T00:34:23;100156.78;;;10.77;88.03
10008;BME280;5043;41.766;26.204;2023-04-01T00:36:50;100233.47;;;11.07;88.84
10008;BME280;5043;41.766;26.204;2023-04-01T00:39:16;100140.97;;;10.77;87.50
10008;BME280;5043;41.766;26.204;2023-04-01T00:41:41;100205.63;;;11.35;86.82
10008;BME280;5043;41.766;26.204;2023-04-01T00:44:26;100205.91;;;11.32;86.88
10008;BME280;5043;41.766;26.204;2023-04-01T00:46:52;100211.59;;;11.16;87.38
10008;BME280;5043;41.766;26.204;2023-04-01T00:49:23;100173.19;;;10.91;87.30
10008;BME280;5043;41.766;26.204;2023-04-01T00:51:53;100084.88;;;10.43;86.97
10008;BME280;5043;41.766;26.204;2023-04-01T00:54:21;100203.50;;;11.29;86.75
10008;BME280;5043;41.766;26.204;2023-04-01T00:59:24;100176.97;;;11.30;84.81
10008;BME280;5043;41.766;26.204;2023-04-01T01:01:50;100172.91;;;11.47;83.91
10008;BME280;5043;41.766;26.204;2023-04-01T01:04:33;100123.44;;;11.07;84.44
10008;BME280;5043;41.766;26.204;2023-04-01T01:17:32;100171.44;;;11.33;85.65
10008;BME280;5043;41.766;26.204;2023-04-01T01:31:23;100147.13;;;10.98;87.60
10008;BME280;5043;41.766;26.204;2023-04-01T01:34:19;100152.69;;;10.84;87.79
10008;BME280;5043;41.766;26.204;2023-04-01T01:36:52;100166.28;;;11.11;86.99
10008;BME280;5043;41.766;26.204;2023-04-01T01:39:20;100154.97;;;11.09;86.78
10008;BME280;5043;41.766;26.204;2023-04-01T01:41:51;100160.31;;;10.98;87.46
10008;BME280;5043;41.766;26.204;2023-04-01T01:44:17;100143.78;;;11.17;86.42
10008;BME280;5043;41.766;26.204;2023-04-01T01:46:44;100153.25;;;11.19;87.03
10008;BME280;5043;41.766;26.204;2023-04-01T01:49:11;100162.91;;;11.09;87.54
10008;BME280;5043;41.766;26.204;2023-04-01T01:51:38;100101.38;;;10.77;87.34
10008;BME280;5043;41.766;26.204;2023-04-01T01:54:05;100106.47;;;10.69;87.92
10008;BME280;5043;41.766;26.204;2023-04-01T01:56:30;100148.50;;;10.81;88.45
10008;BME280;5043;41.766;26.204;2023-04-01T01:59:03;100182.97;;;11.00;88.75
10008;BME280;5043;41.766;26.204;2023-04-01T02:01:33;100164.97;;;11.05;89.06
10008;BME280;5043;41.766;26.204;2023-04-01T02:04:01;100154.31;;;10.96;88.93
10008;BME280;5043;41.766;26.204;2023-04-01T02:06:30;100092.22;;;10.60;89.73
10008;BME280;5043;41.766;26.204;2023-04-01T02:09:00;100168.53;;;11.16;89.25
10008;BME280;5043;41.766;26.204;2023-04-01T02:11:36;100191.50;;;11.04;89.40
10008;BME280;5043;41.766;26.204;2023-04-01T02:19:18;100205.28;;;11.07;89.83
10008;BME280;5043;41.766;26.204;2023-04-01T02:21:50;100195.22;;;11.01;90.56
10008;BME280;5043;41.766;26.204;2023-04-01T02:24:17;100174.50;;;10.97;90.72
10008;BME280;5043;41.766;26.204;2023-04-01T02:26:47;100181.13;;;11.12;89.68
10008;BME280;5043;41.766;26.204;2023-04-01T02:29:13;100161.25;;;11.08;90.51
10008;BME280;5043;41.766;26.204;2023-04-01T02:31:39;100196.72;;;11.15;90.58
10008;BME280;5043;41.766;26.204;2023-04-01T02:34:05;100158.63;;;11.29;89.91
10008;BME280;5043;41.766;26.204;2023-04-01T02:36:31;100146.50;;;11.26;89.34
10008;BME280;5043;41.766;26.204;2023-04-01T02:38:57;100169.94;;;11.20;90.45
10008;BME280;5043;41.766;26.204;2023-04-01T02:41:27;100109.53;;;10.74;91.43
10008;BME280;5043;41.766;26.204;2023-04-01T02:43:53;100079.25;;;10.68;90.69
10008;BME280;5043;41.766;26.204;2023-04-01T02:46:18;100098.75;;;10.77;91.57
10008;BME280;5043;41.766;26.204;2023-04-01T02:48:44;100179.50;;;11.00;92.26
10008;BME280;5043;41.766;26.204;2023-04-01T02:51:09;100145.72;;;11.15;92.68
10008;BME280;5043;41.766;26.204;2023-04-01T02:53:35;100140.13;;;11.08;93.09
10008;BME280;5043;41.766;26.204;2023-04-01T02:56:00;100164.00;;;11.06;92.76
10008;BME280;5043;41.766;26.204;2023-04-01T02:58:26;100154.44;;;11.26;92.31
10008;BME280;5043;41.766;26.204;2023-04-01T03:00:51;100131.91;;;11.22;92.10
10008;BME280;5043;41.766;26.204;2023-04-01T03:03:16;100147.81;;;11.32;91.45
10008;BME280;5043;41.766;26.204;2023-04-01T03:05:42;100123.28;;;11.20;92.43
10008;BME280;5043;41.766;26.204;2023-04-01T03:08:07;100125.91;;;11.20;93.09
10008;BME280;5043;41.766;26.204;2023-04-01T03:10:33;100122.28;;;11.21;93.17
10008;BME280;5043;41.766;26.204;2023-04-01T03:12:58;100113.84;;;11.06;93.75
10008;BME280;5043;41.766;26.204;2023-04-01T03:15:24;100108.22;;;11.11;93.88
10008;BME280;5043;41.766;26.204;2023-04-01T03:17:49;100110.38;;;11.06;94.18
10008;BME280;5043;41.766;26.204;2023-04-01T03:20:15;100107.47;;;11.09;94.26
10008;BME280;5043;41.766;26.204;2023-04-01T03:22:41;100102.97;;;11.00;94.40
10008;BME280;5043;41.766;26.204;2023-04-01T03:25:06;100100.59;;;10.97;95.26
10008;BME280;5043;41.766;26.204;2023-04-01T03:27:33;100114.97;;;11.04;95.10
10008;BME280;5043;41.766;26.204;2023-04-01T03:30:00;100118.22;;;10.96;95.14
10008;BME280;5043;41.766;26.204;2023-04-01T03:32:26;100002.75;;;10.48;95.30
10008;BME280;5043;41.766;26.204;2023-04-01T03:34:52;100059.50;;;10.83;95.12
10008;BME280;5043;41.766;26.204;2023-04-01T03:37:17;100041.34;;;10.69;94.71
10008;BME280;5043;41.766;26.204;2023-04-01T03:39:43;100095.75;;;11.02;94.94
10008;BME280;5043;41.766;26.204;2023-04-01T03:42:08;100104.09;;;10.86;95.75
10008;BME280;5043;41.766;26.204;2023-04-01T03:44:34;100026.25;;;10.40;95.71
10008;BME280;5043;41.766;26.204;2023-04-01T03:46:59;100022.59;;;10.31;96.72
10008;BME280;5043;41.766;26.204;2023-04-01T03:49:25;100091.91;;;10.74;96.59
10008;BME280;5043;41.766;26.204;2023-04-01T03:51:51;100002.72;;;10.16;97.66
10008;BME280;5043;41.766;26.204;2023-04-01T03:54:17;100090.22;;;10.84;97.93
10008;BME280;5043;41.766;26.204;2023-04-01T03:56:43;100091.91;;;10.85;97.55
10008;BME280;5043;41.766;26.204;2023-04-01T03:59:08;100098.03;;;10.75;98.07
10008;BME280;5043;41.766;26.204;2023-04-01T04:01:34;100015.25;;;10.34;97.85
10008;BME280;5043;41.766;26.204;2023-04-01T04:04:00;100097.50;;;10.92;99.49
10008;BME280;5043;41.766;26.204;2023-04-01T04:06:26;100104.41;;;11.04;100.00
10008;BME280;5043;41.766;26.204;2023-04-01T04:08:52;100104.09;;;11.18;100.00
10008;BME280;5043;41.766;26.204;2023-04-01T04:11:19;100087.13;;;11.21;100.00
10008;BME280;5043;41.766;26.204;2023-04-01T04:13:45;100094.69;;;11.25;100.00
10008;BME280;5043;41.766;26.204;2023-04-01T04:16:11;100105.34;;;11.44;100.00
10008;BME280;5043;41.766;26.204;2023-04-01T04:18:37;100090.91;;;11.28;100.00
10008;BME280;5043;41.766;26.204;2023-04-01T04:21:03;100033.56;;;10.88;100.00
10008;BME280;5043;41.766;26.204;2023-04-01T04:23:29;100100.34;;;11.41;100.00
10008;BME280;5043;41.766;26.204;2023-04-01T04:26:05;100084.88;;;11.37;100.00
10008;BME280;5043;41.766;26.204;2023-04-01T04:28:31;100108.78;;;11.65;100.00
10008;BME280;5043;41.766;26.204;2023-04-01T04:30:57;100122.28;;;11.62;100.00
10008;BME280;5043;41.766;26.204;2023-04-01T04:33:23;100105.72;;;11.60;100.00
10008;BME280;5043;41.766;26.204;2023-04-01T04:35:49;100095.16;;;11.60;100.00
10008;BME280;5043;41.766;26.204;2023-04-01T04:38:15;100107.06;;;11.76;100.00
10008;BME280;5043;41.766;26.204;2023-04-01T04:40:42;100090.66;;;11.72;100.00
10008;BME280;5043;41.766;26.204;2023-04-01T04:43:10;100097.44;;;11.74;100.00
10008;BME280;5043;41.766;26.204;2023-04-01T04:45:36;100053.25;;;11.56;100.00
10008;BME280;5043;41.766;26.204;2023-04-01T04:48:01;100037.34;;;11.37;100.00
10008;BME280;5043;41.766;26.204;2023-04-01T04:50:27;100093.59;;;11.79;100.00
10008;BME280;5043;41.766;26.204;2023-04-01T04:52:52;100031.13;;;11.47;100.00
10008;BME280;5043;41.766;26.204;2023-04-01T04:55:18;100084.69;;;11.80;100.00
10008;BME280;5043;41.766;26.204;2023-04-01T04:57:44;100089.75;;;11.92;100.00
10008;BME280;5043;41.766;26.204;2023-04-01T05:00:10;100014.59;;;11.76;100.00
10008;BME280;5043;41.766;26.204;2023-04-01T05:02:36;100080.66;;;12.25;100.00
10008;BME280;5043;41.766;26.204;2023-04-01T05:05:02;100078.56;;;12.38;100.00
10008;BME280;5043;41.766;26.204;2023-04-01T05:07:28;100050.31;;;12.29;100.00
10008;BME280;5043;41.766;26.204;2023-04-01T05:09:53;100081.25;;;12.67;100.00
10008;BME280;5043;41.766;26.204;2023-04-01T05:12:19;100058.97;;;12.60;100.00
10008;BME280;5043;41.766;26.204;2023-04-01T05:14:44;100073.31;;;12.76;100.00
10008;BME280;5043;41.766;26.204;2023-04-01T05:17:11;100039.50;;;12.70;100.00
10008;BME280;5043;41.766;26.204;2023-04-01T05:19:37;100067.88;;;12.97;100.00
10008;BME280;5043;41.766;26.204;2023-04-01T05:22:04;100065.81;;;13.20;100.00
10008;BME280;5043;41.766;26.204;2023-04-01T05:24:30;100010.19;;;13.00;100.00
10008;BME280;5043;41.766;26.204;2023-04-01T05:26:56;100065.44;;;13.42;100.00
10008;BME280;5043;41.766;26.204;2023-04-01T05:29:23;100060.84;;;13.44;100.00
10008;BME280;5043;41.766;26.204;2023-04-01T05:31:49;100056.13;;;13.38;100.00
10008;BME280;5043;41.766;26.204;2023-04-01T05:34:17;100050.72;;;13.66;100.00
10008;BME280;5043;41.766;26.204;2023-04-01T05:36:44;100042.03;;;13.74;100.00
10008;BME280;5043;41.766;26.204;2023-04-01T05:39:10;100002.50;;;13.53;100.00
10008;BME280;5043;41.766;26.204;2023-04-01T05:41:36;100051.19;;;13.89;100.00
10008;BME280;5043;41.766;26.204;2023-04-01T05:44:03;100046.59;;;13.82;100.00
10008;BME280;5043;41.766;26.204;2023-04-01T05:46:29;100044.13;;;13.98;100.00
10008;BME280;5043;41.766;26.204;2023-04-01T05:48:54;100069.53;;;14.00;100.00
10008;BME280;5043;41.766;26.204;2023-04-01T05:51:21;100039.09;;;14.04;100.00
10008;BME280;5043;41.766;26.204;2023-04-01T05:53:46;100044.31;;;14.14;100.00
10008;BME280;5043;41.766;26.204;2023-04-01T05:56:12;100045.47;;;14.11;100.00
10008;BME280;5043;41.766;26.204;2023-04-01T05:58:38;100047.69;;;14.16;100.00
10008;BME280;5043;41.766;26.204;2023-04-01T06:01:09;100067.47;;;14.21;100.00
10008;BME280;5043;41.766;26.204;2023-04-01T06:03:35;100060.25;;;14.41;100.00
10008;BME280;5043;41.766;26.204;2023-04-01T06:06:01;100055.84;;;14.50;100.00
10008;BME280;5043;41.766;26.204;2023-04-01T06:08:30;100056.84;;;14.49;100.00
10008;BME280;5043;41.766;26.204;2023-04-01T06:11:10;100052.75;;;14.54;100.00
10008;BME280;5043;41.766;26.204;2023-04-01T06:16:55;100060.78;;;14.97;99.96
10008;BME280;5043;41.766;26.204;2023-04-01T06:19:46;100070.50;;;15.32;98.33
10008;BME280;5043;41.766;26.204;2023-04-01T06:22:26;100054.03;;;15.54;96.83
10008;BME280;5043;41.766;26.204;2023-04-01T06:25:32;100053.91;;;15.64;94.30
10008;BME280;5043;41.766;26.204;2023-04-01T06:33:20;100048.56;;;16.47;90.76
10008;BME280;5043;41.766;26.204;2023-04-01T06:39:21;100047.94;;;17.10;87.06
10008;BME280;5043;41.766;26.204;2023-04-01T06:45:13;100027.91;;;17.46;84.59
10008;BME280;5043;41.766;26.204;2023-04-01T06:55:36;99977.09;;;17.32;82.90
10008;BME280;5043;41.766;26.204;2023-04-01T06:58:05;100046.41;;;17.56;83.59
10008;BME280;5043;41.766;26.204;2023-04-01T07:00:35;99989.81;;;17.13;83.78
10008;BME280;5043;41.766;26.204;2023-04-01T07:03:26;100031.03;;;17.50;84.38
10008;BME280;5043;41.766;26.204;2023-04-01T07:05:58;99949.19;;;16.95;84.83
10008;BME280;5043;41.766;26.204;2023-04-01T07:08:28;100065.22;;;17.54;84.65
10008;BME280;5043;41.766;26.204;2023-04-01T07:11:06;99968.19;;;16.92;86.19
10008;BME280;5043;41.766;26.204;2023-04-01T07:17:17;99994.78;;;17.79;84.41
10008;BME280;5043;41.766;26.204;2023-04-01T07:19:50;99999.34;;;18.02;83.31
10008;BME280;5043;41.766;26.204;2023-04-01T07:25:20;100003.50;;;18.35;81.68
10008;BME280;5043;41.766;26.204;2023-04-01T07:27:48;99995.09;;;18.46;80.94
10008;BME280;5043;41.766;26.204;2023-04-01T07:30:22;99887.34;;;18.08;79.52
10008;BME280;5043;41.766;26.204;2023-04-01T07:33:16;99994.16;;;18.99;78.77
10008;BME280;5043;41.766;26.204;2023-04-01T07:36:18;100016.41;;;19.29;77.62
10008;BME280;5043;41.766;26.204;2023-04-01T07:38:59;99979.53;;;19.24;77.22
10008;BME280;5043;41.766;26.204;2023-04-01T07:41:54;99957.84;;;19.19;76.66
10008;BME280;5043;41.766;26.204;2023-04-01T07:52:27;99967.34;;;19.51;73.25
10008;BME280;5043;41.766;26.204;2023-04-01T07:55:16;99963.41;;;19.61;73.56
10008;BME280;5043;41.766;26.204;2023-04-01T08:00:53;99951.53;;;20.00;69.99
10008;BME280;5043;41.766;26.204;2023-04-01T08:03:31;99936.78;;;20.10;68.91
10008;BME280;5043;41.766;26.204;2023-04-01T08:06:01;99941.22;;;20.39;68.03
10008;BME280;5043;41.766;26.204;2023-04-01T08:14:23;99924.88;;;20.83;64.81
10008;BME280;5043;41.766;26.204;2023-04-01T08:20:33;99922.53;;;20.73;66.22
10008;BME280;5043;41.766;26.204;2023-04-01T08:25:33;99910.84;;;20.53;65.53
10008;BME280;5043;41.766;26.204;2023-04-01T08:33:12;99857.31;;;20.38;63.37
10008;BME280;5043;41.766;26.204;2023-04-01T08:35:53;99886.75;;;20.87;63.09
10008;BME280;5043;41.766;26.204;2023-04-01T08:38:47;99867.50;;;21.52;58.79
10008;BME280;5043;41.766;26.204;2023-04-01T09:00:30;99786.72;;;20.52;57.63
10008;BME280;5043;41.766;26.204;2023-04-01T09:20:36;99787.56;;;20.53;57.75
10008;BME280;5043;41.766;26.204;2023-04-01T09:35:07;99840.19;;;20.95;56.72
10008;BME280;5043;41.766;26.204;2023-04-01T09:42:56;99802.50;;;21.57;53.17
10008;BME280;5043;41.766;26.204;2023-04-01T09:45:53;99795.88;;;21.59;53.13
10008;BME280;5043;41.766;26.204;2023-04-01T09:54:10;99787.81;;;21.53;54.03
10008;BME280;5043;41.766;26.204;2023-04-01T10:05:27;99767.53;;;20.90;57.62
10008;BME280;5043;41.766;26.204;2023-04-01T10:10:58;99749.56;;;21.31;55.74
10008;BME280;5043;41.766;26.204;2023-04-01T10:27:05;99735.34;;;20.83;56.65
10008;BME280;5043;41.766;26.204;2023-04-01T10:32:26;99739.38;;;20.66;56.79
10008;BME280;5043;41.766;26.204;2023-04-01T11:07:22;99712.16;;;20.01;57.42
10008;BME280;5043;41.766;26.204;2023-04-01T11:16:00;99647.44;;;19.69;58.29
10008;BME280;5043;41.766;26.204;2023-04-01T11:37:38;99706.28;;;20.46;54.25
10008;BME280;5043;41.766;26.204;2023-04-01T11:40:09;99692.44;;;20.36;54.26
10008;BME280;5043;41.766;26.204;2023-04-01T11:42:57;99679.31;;;20.54;53.02
10008;BME280;5043;41.766;26.204;2023-04-01T11:54:03;99658.63;;;20.89;49.96
10008;BME280;5043;41.766;26.204;2023-04-01T12:02:05;99622.53;;;20.91;46.44
10008;BME280;5043;41.766;26.204;2023-04-01T12:10:20;99627.47;;;20.75;45.60
10008;BME280;5043;41.766;26.204;2023-04-01T12:13:16;99622.44;;;20.58;45.72
10008;BME280;5043;41.766;26.204;2023-04-01T12:16:10;99623.16;;;20.33;45.62
10008;BME280;5043;41.766;26.204;2023-04-01T12:18:43;99491.53;;;19.54;45.98
10008;BME280;5043;41.766;26.204;2023-04-01T12:23:50;99623.00;;;20.41;46.99
10008;BME280;5043;41.766;26.204;2023-04-01T12:26:39;99574.78;;;20.54;45.82
10008;BME280;5043;41.766;26.204;2023-04-01T12:37:46;99571.41;;;21.06;42.97
10008;BME280;5043;41.766;26.204;2023-04-01T12:40:31;99565.47;;;21.17;42.78
10008;BME280;5043;41.766;26.204;2023-04-01T12:49:02;99471.09;;;20.54;43.29
10008;BME280;5043;41.766;26.204;2023-04-01T12:51:41;99539.44;;;21.04;43.79
10008;BME280;5043;41.766;26.204;2023-04-01T13:00:18;99533.84;;;21.12;42.96
10008;BME280;5043;41.766;26.204;2023-04-01T13:07:56;99532.81;;;21.00;44.39
10008;BME280;5043;41.766;26.204;2023-04-01T13:10:42;99536.13;;;21.02;44.94
10008;BME280;5043;41.766;26.204;2023-04-01T13:18:57;99468.06;;;21.80;43.68
10008;BME280;5043;41.766;26.204;2023-04-01T13:24:44;99519.06;;;24.11;37.67
10008;BME280;5043;41.766;26.204;2023-04-01T13:37:59;99502.88;;;25.46;33.44
10008;BME280;5043;41.766;26.204;2023-04-01T13:43:35;99535.47;;;26.14;31.86
10008;BME280;5043;41.766;26.204;2023-04-01T14:10:43;99522.13;;;21.13;47.40
10008;BME280;5043;41.766;26.204;2023-04-01T14:16:26;99490.53;;;20.70;49.79
10008;BME280;5043;41.766;26.204;2023-04-01T14:51:41;99417.53;;;20.74;48.44
10008;BME280;5043;41.766;26.204;2023-04-01T14:54:17;99371.13;;;20.74;48.62
10008;BME280;5043;41.766;26.204;2023-04-01T14:59:28;99400.59;;;20.41;49.91
10008;BME280;5043;41.766;26.204;2023-04-01T15:02:15;99387.63;;;20.25;50.38
10008;BME280;5043;41.766;26.204;2023-04-01T15:05:10;99410.28;;;20.22;51.51
10008;BME280;5043;41.766;26.204;2023-04-01T15:21:16;99399.56;;;20.22;50.70
10008;BME280;5043;41.766;26.204;2023-04-01T15:24:07;99406.69;;;19.96;52.37
10008;BME280;5043;41.766;26.204;2023-04-01T15:26:42;99441.91;;;19.93;53.25
10008;BME280;5043;41.766;26.204;2023-04-01T15:32:43;99426.81;;;19.78;54.60
10008;BME280;5043;41.766;26.204;2023-04-01T15:38:09;99434.44;;;19.81;55.03
10008;BME280;5043;41.766;26.204;2023-04-01T15:43:48;99448.75;;;19.61;56.63
10008;BME280;5043;41.766;26.204;2023-04-01T15:46:49;99472.63;;;19.62;57.48
10008;BME280;5043;41.766;26.204;2023-04-01T15:49:37;99421.81;;;19.28;57.31
10008;BME280;5043;41.766;26.204;2023-04-01T16:00:25;99535.00;;;19.35;59.70
10008;BME280;5043;41.766;26.204;2023-04-01T16:07:58;99541.47;;;18.71;65.03
10008;BME280;5043;41.766;26.204;2023-04-01T16:10:44;99558.38;;;18.57;66.14
10008;BME280;5043;41.766;26.204;2023-04-01T16:16:25;99567.47;;;18.12;68.97
10008;BME280;5043;41.766;26.204;2023-04-01T16:21:53;99534.34;;;17.48;71.85
10008;BME280;5043;41.766;26.204;2023-04-01T16:27:36;99593.66;;;17.50;73.79
10008;BME280;5043;41.766;26.204;2023-04-01T16:35:56;99598.81;;;17.14;75.40
10008;BME280;5043;41.766;26.204;2023-04-01T16:44:08;99545.06;;;16.65;75.78
10008;BME280;5043;41.766;26.204;2023-04-01T16:46:39;99596.47;;;16.96;75.46
10008;BME280;5043;41.766;26.204;2023-04-01T16:59:53;99640.84;;;16.81;77.50
10008;BME280;5043;41.766;26.204;2023-04-01T17:02:25;99649.47;;;16.83;77.51
10008;BME280;5043;41.766;26.204;2023-04-01T17:05:11;99602.50;;;16.29;80.62
10008;BME280;5043;41.766;26.204;2023-04-01T17:18:30;99689.47;;;16.36;87.95
10008;BME280;5043;41.766;26.204;2023-04-01T17:21:38;99587.69;;;15.88;89.07
10008;BME280;5043;41.766;26.204;2023-04-01T17:33:02;99673.22;;;16.23;93.21
10008;BME280;5043;41.766;26.204;2023-04-01T17:48:49;99550.31;;;15.81;99.55
10008;BME280;5043;41.766;26.204;2023-04-01T18:03:11;99618.00;;;15.70;100.00
10008;BME280;5043;41.766;26.204;2023-04-01T18:17:18;99694.72;;;15.17;100.00
10008;BME280;5043;41.766;26.204;2023-04-01T18:25:33;99731.13;;;15.17;100.00
10008;BME280;5043;41.766;26.204;2023-04-01T18:39:23;99746.81;;;14.86;100.00
10008;BME280;5043;41.766;26.204;2023-04-01T18:44:49;99679.94;;;14.40;100.00
10008;BME280;5043;41.766;26.204;2023-04-01T18:50:13;99754.25;;;14.82;100.00
10008;BME280;5043;41.766;26.204;2023-04-01T18:52:44;99684.53;;;14.30;100.00
10008;BME280;5043;41.766;26.204;2023-04-01T19:00:39;99769.09;;;14.59;100.00
10008;BME280;5043;41.766;26.204;2023-04-01T19:05:45;99776.97;;;14.25;100.00
10008;BME280;5043;41.766;26.204;2023-04-01T19:11:11;99789.59;;;14.49;100.00
10008;BME280;5043;41.766;26.204;2023-04-01T19:21:56;99796.38;;;14.77;100.00
10008;BME280;5043;41.766;26.204;2023-04-01T19:27:36;99782.84;;;14.96;100.00
10008;BME280;5043;41.766;26.204;2023-04-01T19:30:25;99787.38;;;14.70;100.00
10008;BME280;5043;41.766;26.204;2023-04-01T19:41:47;99748.03;;;14.06;100.00
10008;BME280;5043;41.766;26.204;2023-04-01T19:44:30;99727.53;;;13.91;100.00
10008;BME280;5043;41.766;26.204;2023-04-01T19:47:11;99756.97;;;14.05;100.00
10008;BME280;5043;41.766;26.204;2023-04-01T19:52:36;99798.59;;;14.30;100.00
10008;BME280;5043;41.766;26.204;2023-04-01T20:14:50;99827.25;;;13.66;100.00
10008;BME280;5043;41.766;26.204;2023-04-01T20:17:21;99829.22;;;13.64;100.00
10008;BME280;5043;41.766;26.204;2023-04-01T20:25:16;99863.84;;;13.80;100.00
10008;BME280;5043;41.766;26.204;2023-04-01T20:27:53;99784.31;;;13.45;100.00
10008;BME280;5043;41.766;26.204;2023-04-01T20:47:15;99833.06;;;13.69;100.00
10008;BME280;5043;41.766;26.204;2023-04-01T21:12:51;99836.22;;;13.10;100.00
10008;BME280;5043;41.766;26.204;2023-04-01T21:15:27;99884.41;;;13.24;100.00
10008;BME280;5043;41.766;26.204;2023-04-01T21:40:25;99897.91;;;12.37;100.00
10008;BME280;5043;41.766;26.204;2023-04-01T21:45:41;99858.28;;;11.90;100.00
10008;BME280;5043;41.766;26.204;2023-04-01T21:51:30;99928.13;;;12.25;100.00
10008;BME280;5043;41.766;26.204;2023-04-01T22:05:48;99910.44;;;11.88;100.00
10008;BME280;5043;41.766;26.204;2023-04-01T22:08:41;99908.22;;;11.93;100.00
10008;BME280;5043;41.766;26.204;2023-04-01T22:19:12;99914.19;;;12.14;100.00
10008;BME280;5043;41.766;26.204;2023-04-01T22:25:10;99938.13;;;12.31;99.25
10008;BME280;5043;41.766;26.204;2023-04-01T22:30:27;99951.06;;;12.34;96.62
10008;BME280;5043;41.766;26.204;2023-04-01T22:33:13;99877.03;;;11.96;96.25
10008;BME280;5043;41.766;26.204;2023-04-01T22:43:55;99968.03;;;12.13;95.35
10008;BME280;5043;41.766;26.204;2023-04-01T22:49:42;99960.13;;;12.13;94.75
10008;BME280;5043;41.766;26.204;2023-04-01T22:52:15;99898.28;;;11.66;94.91
10008;BME280;5043;41.766;26.204;2023-04-01T22:54:53;99968.72;;;11.96;95.00
10008;BME280;5043;41.766;26.204;2023-04-01T23:00:06;99964.81;;;11.81;95.96
10008;BME280;5043;41.766;26.204;2023-04-01T23:05:17;99969.47;;;11.58;95.63
10008;BME280;5043;41.766;26.204;2023-04-01T23:08:22;100016.13;;;11.48;95.35
10008;BME280;5043;41.766;26.204;2023-04-01T23:11:03;99986.09;;;11.49;95.56
10008;BME280;5043;41.766;26.204;2023-04-01T23:13:34;99914.44;;;10.93;95.45
10008;BME280;5043;41.766;26.204;2023-04-01T23:16:01;99972.94;;;11.28;96.15
10008;BME280;5043;41.766;26.204;2023-04-01T23:21:20;99893.63;;;10.69;95.65
10008;BME280;5043;41.766;26.204;2023-04-01T23:24:20;99980.88;;;11.28;95.29
10008;BME280;5043;41.766;26.204;2023-04-01T23:26:58;100018.22;;;11.24;94.80
10008;BME280;5043;41.766;26.204;2023-04-01T23:29:26;99980.06;;;11.07;94.41
10008;BME280;5043;41.766;26.204;2023-04-01T23:31:59;99984.72;;;10.94;94.56
10008;BME280;5043;41.766;26.204;2023-04-01T23:34:29;100032.75;;;11.09;94.60
10008;BME280;5043;41.766;26.204;2023-04-01T23:36:58;100002.28;;;11.04;93.83
10008;BME280;5043;41.766;26.204;2023-04-01T23:39:31;99995.44;;;11.02;93.42
10008;BME280;5043;41.766;26.204;2023-04-01T23:42:11;100000.72;;;11.02;93.26
10008;BME280;5043;41.766;26.204;2023-04-01T23:44:39;99983.31;;;10.90;92.53
10008;BME280;5043;41.766;26.204;2023-04-01T23:47:06;99995.16;;;10.95;91.76
10008;BME280;5043;41.766;26.204;2023-04-01T23:49:41;100013.38;;;10.98;90.80
10008;BME280;5043;41.766;26.204;2023-04-01T23:52:13;100034.78;;;11.05;90.83
10008;BME280;5043;41.766;26.204;2023-04-01T23:55:03;99997.78;;;10.95;90.39
10008;BME280;5043;41.766;26.204;2023-04-01T23:57:35;100033.31;;;11.12;90.95
